Terminal Aerodrome Forecast
Issued by NWS Amarillo, TX

Home | Current Version | Previous Version | Text Only | Print | Product List | Glossary On
Versions: 1 2 3 4 5 6 7 8 9 10 11 12 13 14 15
000
FTUS44 KAMA 161100 RRA
TAFGUY
TAF
KGUY 161145Z 1612/1712 24014KT P6SM BKN300
     FM161500 35017G25KT P6SM SCT300
     FM161800 02018G26KT P6SM BKN150
     FM170000 04017G25KT P6SM OVC100
     FM170600 02019G28KT 6SM -SHRA BR OVC035=

USA.gov is the U.S. government's official web portal to all federal, state and local government web resources and services.